createdAt,value
2018-02-23T06:31:11.344Z,31.92
2018-02-23T06:31:43.357Z,31.82
2018-02-23T06:32:15.392Z,31.82
2018-02-23T06:32:47.443Z,31.92
2018-02-23T06:33:19.454Z,31.92
2018-02-23T06:33:51.456Z,32.01
2018-02-23T06:34:23.492Z,31.92
2018-02-23T06:34:55.521Z,31.92
2018-02-23T06:35:27.624Z,31.92
2018-02-23T06:35:59.657Z,31.92
2018-02-23T06:36:31.683Z,31.92
2018-02-23T06:37:03.767Z,31.82
2018-02-23T06:37:35.728Z,31.82
2018-02-23T06:38:07.724Z,31.82
2018-02-23T06:38:39.715Z,32.01
2018-02-23T06:39:11.760Z,31.82
2018-02-23T06:39:43.737Z,31.82
2018-02-23T06:40:15.735Z,31.82
2018-02-23T06:40:47.755Z,32.01
2018-02-23T06:41:19.822Z,31.92
2018-02-23T06:41:51.828Z,31.92
2018-02-23T06:42:23.822Z,31.82
2018-02-23T06:42:55.864Z,31.72
2018-02-23T06:43:27.872Z,31.82
2018-02-23T06:43:59.883Z,31.82
2018-02-23T06:44:32.280Z,31.82
2018-02-23T06:45:04.355Z,32.39
2018-02-23T06:45:36.375Z,31.92
2018-02-23T06:46:08.403Z,31.82
2018-02-23T06:46:40.444Z,31.92
2018-02-23T06:47:12.494Z,31.82
2018-02-23T06:47:45.241Z,31.92
2018-02-23T06:48:17.271Z,32.1
2018-02-23T06:48:49.351Z,31.92
2018-02-23T06:49:21.545Z,31.72
2018-02-23T06:49:53.660Z,32.39
2018-02-23T06:50:25.688Z,32.29
2018-02-23T06:50:57.731Z,31.72
2018-02-23T06:51:29.833Z,32.29
2018-02-23T06:52:01.853Z,31.74
2018-02-23T06:52:33.876Z,32.29
2018-02-23T06:53:05.938Z,32.41
2018-02-23T06:53:37.973Z,32.31
2018-02-23T06:54:09.976Z,31.64
2018-02-23T06:54:42.006Z,32.49
2018-02-23T06:55:14.032Z,32.39
2018-02-23T06:55:46.042Z,32.39
2018-02-23T06:56:18.074Z,32.29
2018-02-23T06:56:50.075Z,32.29
2018-02-23T06:57:22.091Z,32.39
2018-02-23T06:57:54.134Z,32.39
2018-02-23T06:58:26.172Z,32.39
2018-02-23T06:58:58.159Z,31.72
2018-02-23T06:59:30.164Z,32.39
2018-02-23T07:00:02.352Z,32.29
2018-02-23T07:00:34.477Z,31.53
2018-02-23T07:01:06.464Z,32.29
2018-02-23T07:01:38.495Z,31.55
2018-02-23T07:02:10.551Z,32.29
2018-02-23T07:02:42.624Z,32.29
2018-02-23T07:03:14.663Z,31.53
2018-02-23T07:03:46.735Z,32.41
2018-02-23T07:04:18.844Z,32.29
2018-02-23T07:04:51.362Z,31.55
2018-02-23T07:05:23.370Z,32.49
2018-02-23T07:05:55.492Z,32.49
2018-02-23T07:06:27.559Z,31.72
2018-02-23T07:06:59.716Z,31.63
2018-02-23T07:07:31.700Z,31.53
2018-02-23T07:08:03.717Z,31.55
2018-02-23T07:08:35.799Z,32.41
2018-02-23T07:09:07.834Z,32.41
2018-02-23T07:09:39.880Z,31.63
2018-02-23T07:10:12.045Z,32.31
2018-02-23T07:10:44.113Z,31.74
2018-02-23T07:11:16.264Z,31.84
2018-02-23T07:11:48.392Z,32.31
2018-02-23T07:12:20.408Z,32.41
2018-02-23T07:12:52.424Z,32.31
2018-02-23T07:13:24.489Z,32.31
2018-02-23T07:13:56.534Z,32.31
2018-02-23T07:14:28.588Z,32.31
2018-02-23T07:15:00.813Z,32.41
2018-02-23T07:15:32.831Z,32.41
2018-02-23T07:16:04.887Z,32.41
2018-02-23T07:16:36.881Z,31.64
2018-02-23T07:17:08.931Z,32.41
2018-02-23T07:17:41.080Z,32.41
2018-02-23T07:18:13.752Z,32.31
2018-02-23T07:18:45.769Z,31.74
2018-02-23T07:19:17.797Z,32.31
2018-02-23T07:19:49.850Z,32.21
2018-02-23T07:20:21.868Z,31.74
2018-02-23T07:20:53.896Z,32.41
2018-02-23T07:21:25.937Z,31.93
2018-02-23T07:21:57.977Z,31.84
2018-02-23T07:22:29.968Z,31.84
2018-02-23T07:23:01.975Z,31.74
2018-02-23T07:23:33.962Z,31.74
2018-02-23T07:24:05.986Z,32.41
2018-02-23T07:24:38.096Z,31.74
2018-02-23T07:25:10.097Z,32.41
2018-02-23T07:25:42.133Z,31.93
2018-02-23T07:26:14.199Z,31.84
2018-02-23T07:26:46.205Z,32.31
2018-02-23T07:27:18.219Z,32.03
2018-02-23T07:27:50.277Z,31.84
2018-02-23T07:28:22.330Z,31.93
2018-02-23T07:28:54.358Z,31.74
2018-02-23T07:29:26.399Z,31.74
2018-02-23T07:29:58.454Z,32.12
2018-02-23T07:30:30.448Z,31.74
2018-02-23T07:31:02.485Z,32.03
2018-02-23T07:31:34.504Z,32.03
2018-02-23T07:32:06.611Z,31.93
2018-02-23T07:32:38.755Z,31.93
2018-02-23T07:33:10.743Z,31.93
2018-02-23T07:33:42.796Z,31.93
2018-02-23T07:34:14.823Z,31.93
2018-02-23T07:34:46.865Z,31.93
2018-02-23T07:35:18.871Z,31.93
2018-02-23T07:35:50.881Z,31.93
2018-02-23T07:36:23.093Z,31.93
2018-02-23T07:36:55.825Z,31.84
2018-02-23T07:37:29.548Z,31.84
2018-02-23T07:38:01.587Z,31.84
2018-02-23T07:38:33.777Z,31.74
2018-02-23T07:39:05.794Z,31.93
2018-02-23T07:39:37.830Z,32.03
2018-02-23T07:40:09.892Z,31.84
2018-02-23T07:40:41.890Z,32.12
2018-02-23T07:41:13.915Z,31.84
2018-02-23T07:41:45.970Z,31.84
2018-02-23T07:42:18.042Z,32.03
2018-02-23T07:42:50.069Z,32.03
2018-02-23T07:43:22.100Z,32.03
2018-02-23T07:43:54.149Z,31.93
2018-02-23T07:44:26.112Z,32.03
2018-02-23T07:44:58.186Z,32.03
2018-02-23T07:45:30.200Z,32.03
2018-02-23T07:46:02.257Z,32.03
2018-02-23T07:46:34.261Z,32.03
2018-02-23T07:47:06.399Z,32.03
2018-02-23T07:47:38.989Z,32.21
2018-02-23T07:48:11.099Z,32.12
2018-02-23T07:48:43.127Z,31.74
2018-02-23T07:49:15.144Z,31.93
2018-02-23T07:49:47.109Z,31.93
2018-02-23T07:50:19.162Z,32.03
2018-02-23T07:50:51.236Z,32.03
2018-02-23T07:51:23.291Z,31.93
2018-02-23T07:51:55.460Z,31.95
2018-02-23T07:52:27.469Z,31.93
2018-02-23T07:52:59.500Z,31.93
2018-02-23T07:53:31.517Z,32.03
2018-02-23T07:54:03.559Z,32.04
2018-02-23T07:54:35.633Z,32.03
2018-02-23T07:55:07.658Z,32.04
2018-02-23T07:55:39.855Z,32.04
2018-02-23T07:56:11.854Z,32.04
2018-02-23T07:56:43.862Z,32.04
2018-02-23T07:57:15.964Z,31.95
2018-02-23T07:57:48.089Z,31.56
2018-02-23T07:58:20.129Z,32.04
2018-02-23T07:58:52.185Z,31.95
2018-02-23T07:59:24.233Z,31.95
2018-02-23T07:59:56.392Z,31.95
2018-02-23T08:00:28.504Z,32.04
2018-02-23T08:01:00.831Z,32.14
2018-02-23T08:01:32.883Z,31.56
2018-02-23T08:02:04.972Z,31.95
2018-02-23T08:02:36.949Z,32.04
2018-02-23T08:03:09.362Z,32.23
2018-02-23T08:03:41.609Z,31.95
2018-02-23T08:04:13.666Z,31.95
2018-02-23T08:04:45.678Z,32.14
2018-02-23T08:05:17.734Z,32.14
2018-02-23T08:05:49.743Z,31.95
2018-02-23T08:06:21.735Z,32.04
2018-02-23T08:06:54.597Z,32.23
2018-02-23T08:07:26.746Z,31.85
2018-02-23T08:07:59.294Z,31.85
2018-02-23T08:08:32.342Z,31.66
2018-02-23T08:09:04.415Z,31.85
2018-02-23T08:09:36.428Z,31.56
2018-02-23T08:10:08.373Z,31.56
2018-02-23T08:10:40.360Z,31.66
2018-02-23T08:11:12.408Z,31.58
2018-02-23T08:11:44.451Z,31.67
2018-02-23T08:12:16.685Z,31.96
2018-02-23T08:12:48.711Z,31.77
2018-02-23T08:13:20.813Z,31.67
2018-02-23T08:13:52.770Z,31.67
2018-02-23T08:14:24.889Z,31.77
2018-02-23T08:14:56.983Z,31.67
2018-02-23T08:15:29.002Z,31.67
2018-02-23T08:16:01.016Z,31.67
2018-02-23T08:16:33.079Z,31.67
2018-02-23T08:17:05.186Z,31.77
2018-02-23T08:17:37.210Z,31.67
2018-02-23T08:18:09.279Z,31.77
2018-02-23T08:18:41.330Z,31.58
2018-02-23T08:19:13.378Z,31.58
2018-02-23T08:19:45.577Z,31.58
2018-02-23T08:20:17.671Z,31.67
2018-02-23T08:20:49.829Z,31.58
2018-02-23T08:21:21.874Z,31.67
2018-02-23T08:21:53.833Z,31.67
2018-02-23T08:22:25.882Z,31.58
2018-02-23T08:22:57.930Z,31.77
2018-02-23T08:23:30.208Z,31.96
2018-02-23T08:24:02.385Z,31.77
2018-02-23T08:24:34.391Z,31.58
2018-02-23T08:25:06.391Z,31.96
2018-02-23T08:25:38.440Z,31.77
2018-02-23T08:26:10.454Z,31.87
2018-02-23T08:26:42.593Z,31.87
2018-02-23T08:27:14.606Z,31.87
2018-02-23T08:27:46.614Z,31.77
2018-02-23T08:28:18.700Z,31.87
2018-02-23T08:28:50.736Z,31.96
2018-02-23T08:29:22.749Z,31.79
2018-02-23T08:29:54.710Z,31.88
2018-02-23T08:30:26.727Z,31.67
2018-02-23T08:30:58.774Z,31.88
2018-02-23T08:31:30.819Z,31.69
2018-02-23T08:32:02.877Z,31.79
2018-02-23T08:32:34.890Z,31.79
2018-02-23T08:33:06.906Z,31.98
2018-02-23T08:33:39.021Z,31.88
2018-02-23T08:34:11.045Z,31.88
2018-02-23T08:34:43.068Z,31.79
2018-02-23T08:35:15.099Z,31.69
2018-02-23T08:35:47.150Z,31.79
2018-02-23T08:36:19.277Z,31.88
2018-02-23T08:36:51.316Z,31.5
2018-02-23T08:37:23.397Z,31.79
2018-02-23T08:37:55.478Z,31.79
2018-02-23T08:38:27.456Z,31.79
2018-02-23T08:38:59.508Z,31.88
2018-02-23T08:39:31.501Z,31.98
2018-02-23T08:40:03.508Z,31.98
2018-02-23T08:40:35.657Z,31.98
2018-02-23T08:41:07.714Z,31.88
2018-02-23T08:41:39.757Z,31.98
2018-02-23T08:42:11.792Z,31.79
2018-02-23T08:42:43.855Z,31.88
2018-02-23T08:43:15.872Z,31.98
2018-02-23T08:43:47.884Z,31.88
2018-02-23T08:44:19.993Z,31.98
2018-02-23T08:44:52.017Z,31.98
2018-02-23T08:45:23.998Z,31.98
2018-02-23T08:45:56.087Z,31.88
2018-02-23T08:46:28.305Z,31.88
2018-02-23T08:47:00.307Z,31.79
2018-02-23T08:47:32.334Z,31.59
2018-02-23T08:48:04.367Z,31.9
2018-02-23T08:48:36.392Z,31.9
2018-02-23T08:49:08.524Z,31.98
2018-02-23T08:49:40.557Z,31.88
2018-02-23T08:50:12.567Z,31.9
2018-02-23T08:50:44.695Z,31.99
2018-02-23T08:51:16.715Z,31.8
2018-02-23T08:51:48.709Z,31.9
2018-02-23T08:52:20.728Z,31.9
2018-02-23T08:52:52.893Z,31.9
2018-02-23T08:53:24.918Z,31.88
2018-02-23T08:53:56.945Z,31.99
2018-02-23T08:54:29.054Z,31.99
2018-02-23T08:55:01.218Z,31.23
2018-02-23T08:55:33.260Z,31.61
2018-02-23T08:56:05.822Z,31.51
2018-02-23T08:56:37.834Z,31.71
2018-02-23T08:57:09.886Z,31.71
2018-02-23T08:57:41.957Z,32.09
2018-02-23T08:58:13.977Z,31.71
2018-02-23T08:58:46.026Z,31.51
2018-02-23T08:59:18.083Z,31.9
2018-02-23T08:59:50.122Z,31.42
2018-02-23T09:00:22.130Z,31.9
2018-02-23T09:00:54.380Z,31.61
2018-02-23T09:01:26.453Z,31.9
2018-02-23T09:01:58.437Z,32.09
2018-02-23T09:02:30.503Z,31.71
2018-02-23T09:03:02.541Z,31.99
2018-02-23T09:03:34.601Z,31.51
2018-02-23T09:04:06.629Z,31.99
2018-02-23T09:04:38.641Z,31.42
2018-02-23T09:05:10.685Z,31.51
2018-02-23T09:05:42.709Z,31.99
2018-02-23T09:06:14.722Z,31.61
2018-02-23T09:06:46.753Z,31.63
2018-02-23T09:07:18.779Z,31.61
2018-02-23T09:07:50.795Z,31.63
2018-02-23T09:08:22.973Z,31.63
2018-02-23T09:08:55.815Z,32.1
2018-02-23T09:09:27.932Z,31.63
2018-02-23T09:09:59.993Z,31.82
2018-02-23T09:10:31.988Z,31.53
2018-02-23T09:11:03.983Z,31.82
2018-02-23T09:11:36.003Z,31.63
2018-02-23T09:12:07.998Z,31.72
2018-02-23T09:12:40.033Z,31.63
2018-02-23T09:13:12.149Z,31.53
2018-02-23T09:13:44.156Z,31.82
2018-02-23T09:14:16.214Z,31.82
2018-02-23T09:14:48.260Z,31.82
2018-02-23T09:15:20.388Z,31.82
2018-02-23T09:15:52.479Z,31.82
2018-02-23T09:16:24.524Z,31.72
2018-02-23T09:16:56.547Z,31.82
2018-02-23T09:17:28.550Z,31.63
2018-02-23T09:18:00.599Z,31.82
2018-02-23T09:18:32.641Z,31.82
2018-02-23T09:19:04.652Z,31.53
2018-02-23T09:19:36.661Z,31.72
2018-02-23T09:20:08.684Z,31.72
2018-02-23T09:20:40.671Z,31.74
2018-02-23T09:21:12.698Z,31.82
2018-02-23T09:21:44.736Z,31.82
2018-02-23T09:22:16.783Z,31.84
2018-02-23T09:22:48.774Z,31.84
2018-02-23T09:23:20.812Z,31.84
2018-02-23T09:23:52.830Z,31.45
2018-02-23T09:24:24.903Z,31.45
2018-02-23T09:24:56.901Z,31.84
2018-02-23T09:25:28.869Z,31.74
2018-02-23T09:26:00.869Z,31.64
2018-02-23T09:26:32.946Z,31.74
2018-02-23T09:27:04.976Z,31.84
2018-02-23T09:27:37.153Z,31.84
2018-02-23T09:28:09.220Z,31.64
2018-02-23T09:28:41.281Z,31.64
2018-02-23T09:29:13.264Z,31.54
2018-02-23T09:29:45.360Z,31.84
2018-02-23T09:30:17.341Z,31.64
2018-02-23T09:30:49.463Z,31.54
2018-02-23T09:31:21.578Z,31.74
2018-02-23T09:31:53.802Z,31.84
2018-02-23T09:32:25.943Z,31.64
2018-02-23T09:32:57.948Z,31.84
2018-02-23T09:33:30.030Z,31.84
2018-02-23T09:34:01.997Z,31.84
2018-02-23T09:34:39.740Z,31.84
2018-02-23T09:35:15.470Z,31.85
2018-02-23T09:35:48.372Z,31.85
2018-02-23T09:36:20.357Z,31.75
2018-02-23T09:36:52.324Z,31.85
2018-02-23T09:37:24.338Z,31.56
2018-02-23T09:37:56.952Z,31.66
2018-02-23T09:38:28.950Z,31.75
2018-02-23T09:39:00.981Z,31.56
2018-02-23T09:39:32.974Z,31.66
2018-02-23T09:40:05.080Z,31.56
2018-02-23T09:40:37.121Z,31.66
2018-02-23T09:41:09.130Z,31.56
2018-02-23T09:41:41.145Z,31.56
2018-02-23T09:42:13.187Z,31.56
2018-02-23T09:42:45.230Z,31.75
2018-02-23T09:43:17.286Z,31.46
2018-02-23T09:43:49.240Z,31.66
2018-02-23T09:44:21.224Z,31.75
2018-02-23T09:44:53.205Z,31.66
2018-02-23T09:45:25.242Z,31.85
2018-02-23T09:45:57.309Z,31.1
2018-02-23T09:46:29.347Z,31.85
2018-02-23T09:47:01.318Z,31.56
2018-02-23T09:47:33.347Z,31.66
2018-02-23T09:48:05.379Z,31.77
2018-02-23T09:48:37.434Z,31.77
2018-02-23T09:49:09.480Z,31.48
2018-02-23T09:49:41.477Z,31.58
2018-02-23T09:50:13.526Z,31.77
2018-02-23T09:50:45.524Z,31.58
2018-02-23T09:51:17.484Z,31.67
2018-02-23T09:51:49.511Z,31.58
2018-02-23T09:52:21.577Z,31.67
2018-02-23T09:52:53.734Z,31.58
2018-02-23T09:53:25.789Z,31.48
2018-02-23T09:53:57.765Z,31.58
2018-02-23T09:54:29.775Z,31.67
2018-02-23T09:55:01.809Z,31.77
2018-02-23T09:55:33.864Z,31.49
2018-02-23T09:56:05.921Z,31.69
2018-02-23T09:56:37.955Z,31.79
2018-02-23T09:57:10.086Z,31.69
2018-02-23T09:57:42.100Z,31.69
2018-02-23T09:58:14.145Z,31.4
2018-02-23T09:58:46.234Z,31.49
2018-02-23T09:59:18.250Z,31.49
2018-02-23T09:59:50.260Z,31.69
2018-02-23T10:00:22.328Z,31.49
2018-02-23T10:00:54.346Z,31.59
2018-02-23T10:01:26.402Z,31.49
2018-02-23T10:01:58.464Z,31.49
2018-02-23T10:02:30.468Z,31.59
2018-02-23T10:03:03.425Z,31.49
2018-02-23T10:03:35.589Z,31.59
2018-02-23T10:04:07.696Z,31.4
2018-02-23T10:04:39.852Z,31.49
2018-02-23T10:05:11.860Z,31.49
2018-02-23T10:05:43.873Z,31.59
2018-02-23T10:06:15.916Z,31.49
2018-02-23T10:06:47.915Z,31.49
2018-02-23T10:07:19.986Z,31.59
2018-02-23T10:07:52.045Z,31.61
2018-02-23T10:08:24.049Z,31.51
2018-02-23T10:08:55.991Z,31.7
2018-02-23T10:09:28.090Z,31.61
2018-02-23T10:10:00.095Z,31.7
2018-02-23T10:10:32.068Z,31.61
2018-02-23T10:11:04.105Z,31.7
2018-02-23T10:11:36.136Z,31.61
2018-02-23T10:12:08.150Z,31.32
2018-02-23T10:12:41.055Z,31.41
2018-02-23T10:13:13.077Z,31.32
2018-02-23T10:13:45.058Z,31.32
2018-02-23T10:14:17.178Z,31.32
2018-02-23T10:14:49.180Z,31.32
2018-02-23T10:15:21.227Z,31.51
2018-02-23T10:15:53.295Z,31.61
2018-02-23T10:16:25.284Z,31.23
2018-02-23T10:16:57.307Z,31.61
2018-02-23T10:17:29.316Z,31.23
2018-02-23T10:18:01.301Z,31.13
2018-02-23T10:18:33.336Z,31.13
2018-02-23T10:19:05.329Z,31.23
2018-02-23T10:19:37.313Z,31.23
2018-02-23T10:20:09.549Z,31.23
2018-02-23T10:20:41.607Z,31.23
2018-02-23T10:21:13.732Z,31.32
2018-02-23T10:21:45.782Z,31.23
2018-02-23T10:22:17.773Z,31.13
2018-02-23T10:22:49.819Z,31.13
2018-02-23T10:23:21.908Z,31.13
2018-02-23T10:23:53.952Z,31.23
2018-02-23T10:24:25.953Z,31.23
2018-02-23T10:24:58.058Z,31.23
2018-02-23T10:25:30.091Z,31.23
2018-02-23T10:26:02.115Z,31.41
2018-02-23T10:26:34.557Z,31.32
2018-02-23T10:27:06.545Z,31.32
2018-02-23T10:27:38.581Z,31.32
2018-02-23T10:28:10.635Z,31.32
2018-02-23T10:28:42.657Z,31.41
2018-02-23T10:29:14.668Z,31.03
2018-02-23T10:29:46.704Z,31.32
2018-02-23T10:30:18.770Z,31.41
2018-02-23T10:30:50.831Z,31.32
2018-02-23T10:31:22.878Z,31.32
2018-02-23T10:31:55.050Z,31.32
2018-02-23T10:32:27.410Z,31.41
2018-02-23T10:33:00.298Z,30.84
2018-02-23T10:33:33.895Z,31.3
2018-02-23T10:34:07.037Z,31.41
2018-02-23T10:34:39.054Z,30.93
2018-02-23T10:35:11.052Z,31.02
2018-02-23T10:35:43.080Z,31.23
2018-02-23T10:36:15.120Z,31.13
2018-02-23T10:36:47.176Z,31.23
2018-02-23T10:37:19.201Z,30.84
2018-02-23T10:37:51.381Z,31.13
2018-02-23T10:38:24.251Z,31.32
2018-02-23T10:38:56.304Z,31.03
2018-02-23T10:39:28.325Z,31.13
2018-02-23T10:40:00.301Z,31.03
2018-02-23T10:40:32.351Z,31.03
2018-02-23T10:41:04.471Z,31.13
2018-02-23T10:41:36.522Z,31.03
2018-02-23T10:42:08.540Z,30.84
2018-02-23T10:42:40.599Z,31.32
2018-02-23T10:43:12.653Z,31.23
2018-02-23T10:43:44.695Z,31.23
2018-02-23T10:44:16.643Z,31.32
2018-02-23T10:44:48.653Z,30.93
2018-02-23T10:45:20.661Z,31.34
2018-02-23T10:45:52.806Z,31.05
2018-02-23T10:46:25.335Z,31.24
2018-02-23T10:46:57.405Z,31.32
2018-02-23T10:47:29.415Z,31.24
2018-02-23T10:48:01.471Z,31.05
2018-02-23T10:48:33.470Z,31.34
2018-02-23T10:49:05.500Z,31.24
2018-02-23T10:49:37.551Z,31.34
2018-02-23T10:50:09.591Z,31.34
2018-02-23T10:50:41.586Z,31.05
2018-02-23T10:51:13.614Z,31.24
2018-02-23T10:51:45.646Z,31.05
2018-02-23T10:52:17.665Z,30.85
2018-02-23T10:52:49.747Z,31.34
2018-02-23T10:53:21.817Z,31.05
2018-02-23T10:53:53.837Z,30.95
2018-02-23T10:54:25.928Z,31.05
2018-02-23T10:54:58.053Z,30.95
2018-02-23T10:55:30.220Z,31.05
2018-02-23T10:56:02.257Z,30.95
2018-02-23T10:56:34.300Z,30.95
2018-02-23T10:57:06.288Z,30.85
2018-02-23T10:57:38.323Z,30.85
2018-02-23T10:58:10.299Z,31.05
2018-02-23T10:58:42.338Z,30.95
2018-02-23T10:59:14.418Z,31.05
2018-02-23T10:59:46.445Z,30.95
2018-02-23T11:00:18.465Z,31.05
2018-02-23T11:00:50.528Z,31.05
2018-02-23T11:01:22.579Z,31.24
2018-02-23T11:01:54.591Z,31.05
2018-02-23T11:02:26.635Z,31.05
2018-02-23T11:02:59.345Z,30.95
2018-02-23T11:03:31.433Z,30.95
2018-02-23T11:04:03.542Z,31.24
2018-02-23T11:04:35.556Z,30.95
2018-02-23T11:05:07.541Z,31.24
2018-02-23T11:05:39.572Z,31.24
2018-02-23T11:06:11.580Z,30.95
2018-02-23T11:06:43.735Z,30.95
2018-02-23T11:07:15.886Z,31.24
2018-02-23T11:07:48.084Z,31.15
2018-02-23T11:08:20.222Z,30.95
2018-02-23T11:08:52.221Z,31.05
2018-02-23T11:09:24.253Z,31.15
2018-02-23T11:09:56.307Z,30.66
2018-02-23T11:10:28.342Z,31.15
2018-02-23T11:11:00.362Z,31.05
2018-02-23T11:11:32.436Z,31.05
2018-02-23T11:12:04.472Z,31.05
2018-02-23T11:12:36.606Z,31.05
2018-02-23T11:13:08.661Z,30.85
2018-02-23T11:13:40.693Z,30.57
2018-02-23T11:14:12.797Z,30.85
2018-02-23T11:14:45.004Z,30.84
2018-02-23T11:15:17.137Z,30.66
2018-02-23T11:15:49.272Z,30.85
2018-02-23T11:16:21.309Z,30.55
2018-02-23T11:16:53.311Z,30.93
2018-02-23T11:17:25.374Z,30.55
2018-02-23T11:17:57.424Z,30.76
2018-02-23T11:18:29.422Z,30.76
2018-02-23T11:19:01.473Z,30.84
2018-02-23T11:19:33.476Z,30.74
2018-02-23T11:20:05.498Z,30.46
2018-02-23T11:20:37.631Z,30.93
2018-02-23T11:21:09.789Z,30.95
2018-02-23T11:21:41.990Z,30.85
2018-02-23T11:22:14.104Z,30.84
2018-02-23T11:22:46.120Z,30.74
2018-02-23T11:23:18.491Z,30.95
2018-02-23T11:23:50.865Z,30.85
2018-02-23T11:24:22.918Z,30.85
2018-02-23T11:24:54.903Z,30.95
2018-02-23T11:25:27.176Z,30.95
2018-02-23T11:25:59.178Z,30.85
2018-02-23T11:26:31.229Z,30.95
2018-02-23T11:27:03.216Z,30.95
2018-02-23T11:27:35.429Z,30.85
2018-02-23T11:28:10.948Z,30.77
2018-02-23T11:28:44.915Z,30.66
2018-02-23T11:29:17.369Z,30.66
2018-02-23T11:29:49.691Z,30.58
2018-02-23T11:30:22.719Z,30.68
2018-02-23T11:30:54.915Z,30.68
2018-02-23T11:31:26.949Z,30.68
2018-02-23T11:31:58.939Z,30.77
2018-02-23T11:32:30.963Z,30.68
2018-02-23T11:33:03.860Z,30.58
2018-02-23T11:33:35.895Z,30.87
2018-02-23T11:34:08.072Z,30.87
2018-02-23T11:34:40.082Z,30.98
2018-02-23T11:35:12.073Z,30.77
2018-02-23T11:35:44.083Z,30.87
2018-02-23T11:36:16.208Z,30.79
2018-02-23T11:36:48.260Z,30.88
2018-02-23T11:37:20.321Z,30.79
2018-02-23T11:37:52.349Z,30.88
2018-02-23T11:38:24.437Z,30.79
2018-02-23T11:38:56.452Z,30.79
2018-02-23T11:39:28.477Z,30.79
2018-02-23T11:40:00.529Z,30.79
2018-02-23T11:40:32.521Z,30.79
2018-02-23T11:41:04.577Z,31
2018-02-23T11:41:36.663Z,30.9
2018-02-23T11:42:08.701Z,30.8
2018-02-23T11:42:40.774Z,31
2018-02-23T11:43:12.767Z,31
2018-02-23T11:43:44.927Z,30.8
2018-02-23T11:44:17.046Z,30.9
2018-02-23T11:44:49.052Z,31.09
2018-02-23T11:45:21.062Z,30.8
2018-02-23T11:45:53.131Z,30.91
2018-02-23T11:46:25.155Z,30.82
2018-02-23T11:46:57.144Z,30.63
2018-02-23T11:47:29.210Z,30.91
2018-02-23T11:48:01.877Z,30.82
2018-02-23T11:48:33.897Z,30.82
2018-02-23T11:49:05.937Z,30.83
2018-02-23T11:49:37.970Z,31.03
2018-02-23T11:50:10.153Z,30.45
2018-02-23T11:50:42.318Z,30.35
2018-02-23T11:51:14.440Z,30.35
2018-02-23T11:51:46.442Z,30.45
2018-02-23T11:52:18.440Z,30.35
2018-02-23T11:52:50.440Z,30.64
2018-02-23T11:53:22.445Z,30.55
2018-02-23T11:53:54.471Z,30.76
2018-02-23T11:54:26.560Z,30.18
2018-02-23T11:54:58.621Z,30.56
2018-02-23T11:55:30.693Z,30.37
2018-02-23T11:56:02.713Z,30.37
2018-02-23T11:56:34.873Z,30.27
2018-02-23T11:57:06.907Z,30.27
2018-02-23T11:57:38.889Z,30.29
2018-02-23T11:58:10.997Z,30.38
2018-02-23T11:58:43.104Z,30.38
2018-02-23T11:59:15.123Z,30.29
2018-02-23T11:59:47.304Z,30.38
2018-02-23T12:00:19.319Z,30.29
2018-02-23T12:00:51.413Z,30.38
2018-02-23T12:01:23.445Z,30.59
2018-02-23T12:01:55.467Z,30.49
2018-02-23T12:02:27.492Z,30.4
2018-02-23T12:02:59.540Z,30.21
2018-02-23T12:03:31.600Z,30.21
2018-02-23T12:04:03.633Z,30.3
2018-02-23T12:04:36.317Z,30.21
2018-02-23T12:05:08.366Z,30.32
2018-02-23T12:05:40.453Z,30.12
2018-02-23T12:06:12.483Z,29.93
2018-02-23T12:06:44.469Z,29.93
2018-02-23T12:07:16.577Z,30.12
2018-02-23T12:07:49.696Z,29.93
2018-02-23T12:08:21.699Z,29.93
2018-02-23T12:08:53.759Z,29.83
2018-02-23T12:09:25.830Z,29.94
2018-02-23T12:09:57.991Z,30.14
2018-02-23T12:10:29.985Z,29.56
2018-02-23T12:11:02.128Z,29.56
2018-02-23T12:11:34.218Z,30.04
2018-02-23T12:12:06.212Z,29.46
2018-02-23T12:12:38.253Z,29.77
2018-02-23T12:13:10.303Z,29.57
2018-02-23T12:13:42.399Z,29.86
2018-02-23T12:14:14.470Z,29.67
2018-02-23T12:14:46.481Z,29.67
2018-02-23T12:15:18.486Z,29.57
2018-02-23T12:15:50.531Z,29.67
2018-02-23T12:16:22.627Z,29.47
2018-02-23T12:16:54.641Z,29.19
2018-02-23T12:17:26.652Z,29.19
2018-02-23T12:17:58.655Z,29.39
2018-02-23T12:18:30.643Z,29.39
2018-02-23T12:19:02.679Z,29.01
2018-02-23T12:19:35.518Z,29.3
2018-02-23T12:20:07.531Z,29.3
2018-02-23T12:20:39.548Z,29.39
2018-02-23T12:21:11.588Z,29.39
2018-02-23T12:21:43.743Z,29.5
2018-02-23T12:22:15.858Z,29.1
2018-02-23T12:22:47.874Z,29.22
2018-02-23T12:23:19.916Z,29.2
2018-02-23T12:23:51.956Z,29.22
2018-02-23T12:24:24.089Z,29.32
2018-02-23T12:24:56.091Z,28.73
2018-02-23T12:25:28.120Z,28.92
2018-02-23T12:26:00.136Z,28.54
2018-02-23T12:26:32.131Z,28.83
2018-02-23T12:27:04.155Z,28.73
2018-02-23T12:27:36.237Z,29.02
2018-02-23T12:28:08.273Z,29.02
2018-02-23T12:28:40.289Z,28.65
2018-02-23T12:29:12.338Z,28.65
2018-02-23T12:29:44.427Z,28.85
2018-02-23T12:30:16.549Z,28.65
2018-02-23T12:30:48.590Z,28.55
2018-02-23T12:31:20.753Z,28.75
2018-02-23T12:31:52.769Z,28.66
2018-02-23T12:32:24.815Z,28.56
2018-02-23T12:32:56.856Z,28.56
2018-02-23T12:33:28.842Z,28.56
2018-02-23T12:34:00.964Z,28.56
2018-02-23T12:34:33.072Z,28.47
2018-02-23T12:35:05.091Z,28.66
2018-02-23T12:35:37.139Z,28.56
2018-02-23T12:36:09.273Z,28.56
2018-02-23T12:36:41.288Z,28.49
2018-02-23T12:37:13.322Z,28.58
2018-02-23T12:37:45.317Z,28.29
2018-02-23T12:38:17.377Z,28.29
2018-02-23T12:38:49.488Z,28.29
2018-02-23T12:39:21.510Z,28.39
2018-02-23T12:39:53.511Z,28.29
2018-02-23T12:40:25.544Z,28
2018-02-23T12:40:57.585Z,28.02
2018-02-23T12:41:30.243Z,27.92
2018-02-23T12:42:02.331Z,27.72
2018-02-23T12:42:34.409Z,28.11
2018-02-23T12:43:06.450Z,27.92
2018-02-23T12:43:38.484Z,28.11
2018-02-23T12:44:10.517Z,28.02
2018-02-23T12:44:42.675Z,28.2
2018-02-23T12:45:14.703Z,27.93
2018-02-23T12:45:46.718Z,27.83
2018-02-23T12:46:18.827Z,27.73
2018-02-23T12:46:50.850Z,27.64
2018-02-23T12:47:22.824Z,27.73
2018-02-23T12:47:54.845Z,27.73
2018-02-23T12:48:26.911Z,27.64
2018-02-23T12:48:58.894Z,27.66
2018-02-23T12:49:30.919Z,27.75
2018-02-23T12:50:02.947Z,27.75
2018-02-23T12:50:34.947Z,27.56
2018-02-23T12:51:07.005Z,27.36
2018-02-23T12:51:39.066Z,27.46
2018-02-23T12:52:11.079Z,27.46
2018-02-23T12:52:43.144Z,27.36
2018-02-23T12:53:15.947Z,27.56
2018-02-23T12:53:47.943Z,27.57
2018-02-23T12:54:19.949Z,27.57
2018-02-23T12:54:51.966Z,27.57
2018-02-23T12:55:24.661Z,27.37
2018-02-23T12:55:56.673Z,27.47
2018-02-23T12:56:28.802Z,27.57
2018-02-23T12:57:00.913Z,27.57
2018-02-23T12:57:32.961Z,27.37
2018-02-23T12:58:04.967Z,27.19
2018-02-23T12:58:36.983Z,27.19
2018-02-23T12:59:09.012Z,27.19
2018-02-23T12:59:41.051Z,27.48
2018-02-23T13:00:13.114Z,27.29
2018-02-23T13:00:45.080Z,27
2018-02-23T13:01:17.106Z,27
2018-02-23T13:01:49.198Z,27.1
2018-02-23T13:02:21.249Z,26.9
2018-02-23T13:02:53.273Z,26.9
2018-02-23T13:03:25.326Z,27.19
2018-02-23T13:03:57.358Z,27.11
2018-02-23T13:04:29.387Z,27.11
2018-02-23T13:05:01.429Z,26.82
2018-02-23T13:05:33.513Z,26.92
2018-02-23T13:06:05.556Z,26.62
2018-02-23T13:06:37.572Z,26.72
2018-02-23T13:07:10.229Z,26.72
2018-02-23T13:07:42.349Z,26.53
2018-02-23T13:08:15.169Z,26.62
2018-02-23T13:08:47.104Z,26.62
2018-02-23T13:09:19.175Z,26.72
2018-02-23T13:09:51.169Z,26.83
2018-02-23T13:10:23.221Z,26.93
2018-02-23T13:10:55.181Z,26.83
2018-02-23T13:11:27.230Z,26.83
2018-02-23T13:11:59.267Z,26.73
2018-02-23T13:12:31.312Z,26.83
2018-02-23T13:13:03.348Z,26.73
2018-02-23T13:13:35.398Z,26.54
2018-02-23T13:14:07.456Z,26.54
2018-02-23T13:14:39.464Z,26.07
2018-02-23T13:15:11.502Z,26.44
2018-02-23T13:15:43.524Z,26.17
2018-02-23T13:16:15.548Z,26.26
2018-02-23T13:16:47.558Z,26.26
2018-02-23T13:17:19.575Z,26.17
2018-02-23T13:17:51.567Z,26.17
2018-02-23T13:18:23.614Z,25.97
2018-02-23T13:18:55.628Z,26.07
2018-02-23T13:19:27.649Z,25.87
2018-02-23T13:19:59.698Z,25.87
2018-02-23T13:20:31.757Z,25.98
2018-02-23T13:21:03.775Z,25.89
2018-02-23T13:21:35.819Z,25.89
2018-02-23T13:22:08.781Z,25.89
2018-02-23T13:22:40.779Z,25.89
2018-02-23T13:23:12.815Z,26.08
2018-02-23T13:23:44.966Z,25.89
2018-02-23T13:24:16.976Z,25.98
2018-02-23T13:24:49.025Z,25.89
2018-02-23T13:25:21.108Z,25.89